Capitol Logistics 596




RCTP
Taiwan Taoyuan International Airport
Taipei, TW
RKSI
Incheon International Airport
Seoul, KR

Activity Log

Date Flight Route Aircraft Duration
03/20/2021 CPX781 PIANO1C PIANO L3 SALMI B576 SEL SEL1T B744 2h 14m
10/17/2019 CPX781 PIANO1C PIANO L3 SALMI B576 SEL SEL1T B744 2h 04m

Route Details

Aircraft Information
Group: Trans-Pacific Ops
Types: B744,B763,MD11
Route Data
Demand: L
Distance: 791nm
Duration: 2h 04m
Recm'd Route: PIANO1C PIANO L3 SALMI B576 OLMEN OLMEN1H
Origin Wx: RCTP 270500Z 04009KT 6000 -SHRA SCT005 BKN007 BKN015 23/22 Q1007 NOSIG RMK A2974 RA AMT 0.2MM
Dest. Wx: RKSI 270500Z 25011KT CAVOK 21/11 Q1001 NOSIG
Notes:

Financial History
Total Freight: 330,473lbs
Average Load: 165,237lbs/flt
Fuel Used: 99,496lbs
Avg. Fuel Used: 49,748lbs/flt
Fuel Expense: $108,451
Avg. Fuel Expense: $54,225
Avg. Fuel Cost: $1.09/lbs
Total Gross Income: $1,235,660
Pilot Pay: $468
Total Expenses: $133,555
Total Revenue: $992,626
Average Revenue: $617,830.00